OIAM  Mahshahr Airport

Add Bookmark

Iran

Status IATA
Operational MRX
Latitude Longitude
30° 33' 22" N 49° 9' 6" E
30.556200 49.151901
Local (DST + 5) UTC (GMT + 4)
Oct 23, 2014 10:02 Oct 23, 2014 18:32
Sunrise-Sunset Local UTC
Begin Civil Twilight 05:55 02:25
Sunrise 06:20 02:50
Sunset 05:35 14:05
End Civil Twilight 05:59 14:29

Current Weather

METAR Observed VFR
OIAM 231800Z 33006KT CAVOK 20/07 Q1014 Thu, Oct 23, 2014 @ 18:00 UTC
(32 Minutes ago)
Visual Flight Rules
Wind Visibility Clouds Conditions
330° at 6 knots (11 kph) 10 km or more
  • Clear skies
  • No significant weather
Temperatures Readings Precipitation
Current Temp 20°C (68°F)
Dewpoint 7°C (45°F)
Humidity 43%
Altimeter 29.94"Hg
Sea Level Pressure 1014mb
Field Elevation 13.12'
None Recorded

Additional weather within a 92.6km radius of OIAM

Map ICAO Location
OIAG 54.4km E (067°)
OIAA 90.7km W (257°)

24 Hour Weather History

Loading
-

24 Hour Weather Graphs

Loading
-

CheckWX.com is intended as a tool to help pilots better visualize weather data. It is not intended as a substitute for an official weather briefing obtained from a Flight Service Station. CheckWX.com does not meet the FAA requirements for an official pre-flight weather briefing. Therefore, it's important that pilots still call and obtain an official FSS pre-flight weather briefing.